sensor_id;sensor_type;location;lat;lon;timestamp;temperature;humidity
16301;DHT22;8258;51.020;4.248;2023-05-07T00:00:48;15.50;99.90
16301;DHT22;8258;51.020;4.248;2023-05-07T00:03:15;15.40;99.90
16301;DHT22;8258;51.020;4.248;2023-05-07T00:05:43;15.50;99.90
16301;DHT22;8258;51.020;4.248;2023-05-07T00:08:10;15.40;99.90
16301;DHT22;8258;51.020;4.248;2023-05-07T00:10:37;15.50;99.90
16301;DHT22;8258;51.020;4.248;2023-05-07T00:13:05;15.50;99.90
16301;DHT22;8258;51.020;4.248;2023-05-07T00:15:31;15.50;99.90
16301;DHT22;8258;51.020;4.248;2023-05-07T00:17:58;15.50;99.90
16301;DHT22;8258;51.020;4.248;2023-05-07T00:20:25;15.50;99.90
16301;DHT22;8258;51.020;4.248;2023-05-07T00:22:54;15.50;99.90
16301;DHT22;8258;51.020;4.248;2023-05-07T00:25:21;15.50;99.90
16301;DHT22;8258;51.020;4.248;2023-05-07T00:27:48;15.50;99.90
16301;DHT22;8258;51.020;4.248;2023-05-07T00:30:15;15.40;99.90
16301;DHT22;8258;51.020;4.248;2023-05-07T00:32:42;15.50;99.90
16301;DHT22;8258;51.020;4.248;2023-05-07T00:35:11;15.50;99.90
16301;DHT22;8258;51.020;4.248;2023-05-07T00:37:38;15.50;99.90
16301;DHT22;8258;51.020;4.248;2023-05-07T00:40:07;15.50;99.90
16301;DHT22;8258;51.020;4.248;2023-05-07T00:42:35;15.50;99.90
16301;DHT22;8258;51.020;4.248;2023-05-07T00:45:02;15.40;99.90
16301;DHT22;8258;51.020;4.248;2023-05-07T00:47:29;15.40;99.90
16301;DHT22;8258;51.020;4.248;2023-05-07T00:49:57;15.30;99.90
16301;DHT22;8258;51.020;4.248;2023-05-07T00:52:25;15.20;99.90
16301;DHT22;8258;51.020;4.248;2023-05-07T00:54:53;15.10;99.90
16301;DHT22;8258;51.020;4.248;2023-05-07T00:57:24;15.00;99.90
16301;DHT22;8258;51.020;4.248;2023-05-07T00:59:51;15.10;99.90
16301;DHT22;8258;51.020;4.248;2023-05-07T01:02:18;15.10;99.90
16301;DHT22;8258;51.020;4.248;2023-05-07T01:04:46;15.00;99.90
16301;DHT22;8258;51.020;4.248;2023-05-07T01:07:13;15.00;99.90
16301;DHT22;8258;51.020;4.248;2023-05-07T01:09:40;14.90;99.90
16301;DHT22;8258;51.020;4.248;2023-05-07T01:12:07;14.80;99.90
16301;DHT22;8258;51.020;4.248;2023-05-07T01:14:36;14.80;99.90
16301;DHT22;8258;51.020;4.248;2023-05-07T01:17:03;14.80;99.90
16301;DHT22;8258;51.020;4.248;2023-05-07T01:19:30;14.70;99.90
16301;DHT22;8258;51.020;4.248;2023-05-07T01:22:01;14.70;99.90
16301;DHT22;8258;51.020;4.248;2023-05-07T01:24:31;14.60;99.90
16301;DHT22;8258;51.020;4.248;2023-05-07T01:26:58;14.60;99.90
16301;DHT22;8258;51.020;4.248;2023-05-07T01:29:27;14.50;99.90
16301;DHT22;8258;51.020;4.248;2023-05-07T01:31:55;14.50;99.90
16301;DHT22;8258;51.020;4.248;2023-05-07T01:34:25;14.50;99.90
16301;DHT22;8258;51.020;4.248;2023-05-07T01:36:54;14.40;99.90
16301;DHT22;8258;51.020;4.248;2023-05-07T01:39:25;14.40;99.90
16301;DHT22;8258;51.020;4.248;2023-05-07T01:41:54;14.40;99.90
16301;DHT22;8258;51.020;4.248;2023-05-07T01:44:22;14.30;99.90
16301;DHT22;8258;51.020;4.248;2023-05-07T01:46:50;14.40;99.90
16301;DHT22;8258;51.020;4.248;2023-05-07T01:49:17;14.30;99.90
16301;DHT22;8258;51.020;4.248;2023-05-07T01:51:44;14.30;99.90
16301;DHT22;8258;51.020;4.248;2023-05-07T01:54:11;14.30;99.90
16301;DHT22;8258;51.020;4.248;2023-05-07T01:56:38;14.20;99.90
16301;DHT22;8258;51.020;4.248;2023-05-07T01:59:07;14.20;99.90
16301;DHT22;8258;51.020;4.248;2023-05-07T02:01:34;14.10;99.90
16301;DHT22;8258;51.020;4.248;2023-05-07T02:04:01;14.00;99.90
16301;DHT22;8258;51.020;4.248;2023-05-07T02:06:27;13.80;99.90
16301;DHT22;8258;51.020;4.248;2023-05-07T02:08:54;13.80;99.90
16301;DHT22;8258;51.020;4.248;2023-05-07T02:11:21;13.80;99.90
16301;DHT22;8258;51.020;4.248;2023-05-07T02:13:48;13.90;99.90
16301;DHT22;8258;51.020;4.248;2023-05-07T02:16:16;14.00;99.90
16301;DHT22;8258;51.020;4.248;2023-05-07T02:18:44;14.00;99.90
16301;DHT22;8258;51.020;4.248;2023-05-07T02:21:11;14.10;99.90
16301;DHT22;8258;51.020;4.248;2023-05-07T02:23:38;14.00;99.90
16301;DHT22;8258;51.020;4.248;2023-05-07T02:26:05;14.10;99.90
16301;DHT22;8258;51.020;4.248;2023-05-07T02:28:32;14.30;99.90
16301;DHT22;8258;51.020;4.248;2023-05-07T02:31:02;14.30;99.90
16301;DHT22;8258;51.020;4.248;2023-05-07T02:33:31;14.40;99.90
16301;DHT22;8258;51.020;4.248;2023-05-07T02:36:05;14.40;99.90
16301;DHT22;8258;51.020;4.248;2023-05-07T02:38:32;14.30;99.90
16301;DHT22;8258;51.020;4.248;2023-05-07T02:40:59;14.40;99.90
16301;DHT22;8258;51.020;4.248;2023-05-07T02:43:26;14.30;99.90
16301;DHT22;8258;51.020;4.248;2023-05-07T02:46:00;14.40;99.90
16301;DHT22;8258;51.020;4.248;2023-05-07T02:48:29;14.40;99.90
16301;DHT22;8258;51.020;4.248;2023-05-07T02:50:56;14.50;99.90
16301;DHT22;8258;51.020;4.248;2023-05-07T02:53:24;14.50;99.90
16301;DHT22;8258;51.020;4.248;2023-05-07T02:55:52;14.40;99.90
16301;DHT22;8258;51.020;4.248;2023-05-07T02:58:19;14.40;99.90
16301;DHT22;8258;51.020;4.248;2023-05-07T03:00:47;14.50;99.90
16301;DHT22;8258;51.020;4.248;2023-05-07T03:03:14;14.50;99.90
16301;DHT22;8258;51.020;4.248;2023-05-07T03:05:42;14.60;99.90
16301;DHT22;8258;51.020;4.248;2023-05-07T03:08:10;14.70;99.90
16301;DHT22;8258;51.020;4.248;2023-05-07T03:10:37;14.70;99.90
16301;DHT22;8258;51.020;4.248;2023-05-07T03:13:04;14.70;99.90
16301;DHT22;8258;51.020;4.248;2023-05-07T03:15:31;14.60;99.90
16301;DHT22;8258;51.020;4.248;2023-05-07T03:17:58;14.60;99.90
16301;DHT22;8258;51.020;4.248;2023-05-07T03:20:25;14.60;99.90
16301;DHT22;8258;51.020;4.248;2023-05-07T03:22:53;14.70;99.90
16301;DHT22;8258;51.020;4.248;2023-05-07T03:25:20;14.70;99.90
16301;DHT22;8258;51.020;4.248;2023-05-07T03:27:47;14.70;99.90
16301;DHT22;8258;51.020;4.248;2023-05-07T03:30:14;14.70;99.90
16301;DHT22;8258;51.020;4.248;2023-05-07T03:32:41;14.70;99.90
16301;DHT22;8258;51.020;4.248;2023-05-07T03:35:08;14.60;99.90
16301;DHT22;8258;51.020;4.248;2023-05-07T03:37:35;14.60;99.90
16301;DHT22;8258;51.020;4.248;2023-05-07T03:40:04;14.60;99.90
16301;DHT22;8258;51.020;4.248;2023-05-07T03:42:32;14.60;99.90
16301;DHT22;8258;51.020;4.248;2023-05-07T03:44:58;14.70;99.90
16301;DHT22;8258;51.020;4.248;2023-05-07T03:47:25;14.70;99.90
16301;DHT22;8258;51.020;4.248;2023-05-07T03:49:52;14.80;99.90
16301;DHT22;8258;51.020;4.248;2023-05-07T03:52:20;14.80;99.90
16301;DHT22;8258;51.020;4.248;2023-05-07T03:54:52;14.80;99.90
16301;DHT22;8258;51.020;4.248;2023-05-07T03:57:20;14.80;99.90
16301;DHT22;8258;51.020;4.248;2023-05-07T03:59:47;14.80;99.90
16301;DHT22;8258;51.020;4.248;2023-05-07T04:02:14;14.70;99.90
16301;DHT22;8258;51.020;4.248;2023-05-07T04:04:41;14.70;99.90
16301;DHT22;8258;51.020;4.248;2023-05-07T04:07:08;14.60;99.90
16301;DHT22;8258;51.020;4.248;2023-05-07T04:09:35;14.60;99.90
16301;DHT22;8258;51.020;4.248;2023-05-07T04:12:03;14.60;99.90
16301;DHT22;8258;51.020;4.248;2023-05-07T04:14:31;14.70;99.90
16301;DHT22;8258;51.020;4.248;2023-05-07T04:16:58;14.70;99.90
16301;DHT22;8258;51.020;4.248;2023-05-07T04:19:25;14.60;99.90
16301;DHT22;8258;51.020;4.248;2023-05-07T04:21:52;14.60;99.90
16301;DHT22;8258;51.020;4.248;2023-05-07T04:24:19;14.60;99.90
16301;DHT22;8258;51.020;4.248;2023-05-07T04:26:46;14.60;99.90
16301;DHT22;8258;51.020;4.248;2023-05-07T04:29:13;14.60;99.90
16301;DHT22;8258;51.020;4.248;2023-05-07T04:31:42;14.60;99.90
16301;DHT22;8258;51.020;4.248;2023-05-07T04:34:09;14.70;99.90
16301;DHT22;8258;51.020;4.248;2023-05-07T04:36:37;14.70;99.90
16301;DHT22;8258;51.020;4.248;2023-05-07T04:39:04;14.70;99.90
16301;DHT22;8258;51.020;4.248;2023-05-07T04:41:31;14.80;99.90
16301;DHT22;8258;51.020;4.248;2023-05-07T04:43:58;14.80;99.90
16301;DHT22;8258;51.020;4.248;2023-05-07T04:46:25;14.80;99.90
16301;DHT22;8258;51.020;4.248;2023-05-07T04:48:54;14.80;99.90
16301;DHT22;8258;51.020;4.248;2023-05-07T04:51:21;14.90;99.90
16301;DHT22;8258;51.020;4.248;2023-05-07T04:53:48;14.90;99.90
16301;DHT22;8258;51.020;4.248;2023-05-07T04:56:15;15.00;99.90
16301;DHT22;8258;51.020;4.248;2023-05-07T04:58:42;15.00;99.90
16301;DHT22;8258;51.020;4.248;2023-05-07T05:01:09;14.90;99.90
16301;DHT22;8258;51.020;4.248;2023-05-07T05:03:36;14.90;99.90
16301;DHT22;8258;51.020;4.248;2023-05-07T05:06:05;14.90;99.90
16301;DHT22;8258;51.020;4.248;2023-05-07T05:08:32;15.00;99.90
16301;DHT22;8258;51.020;4.248;2023-05-07T05:11:00;15.00;99.90
16301;DHT22;8258;51.020;4.248;2023-05-07T05:13:27;15.00;99.90
16301;DHT22;8258;51.020;4.248;2023-05-07T05:15:54;15.10;99.90
16301;DHT22;8258;51.020;4.248;2023-05-07T05:18:21;15.30;99.90
16301;DHT22;8258;51.020;4.248;2023-05-07T05:20:48;15.40;99.90
16301;DHT22;8258;51.020;4.248;2023-05-07T05:23:16;15.60;99.90
16301;DHT22;8258;51.020;4.248;2023-05-07T05:25:43;15.60;99.90
16301;DHT22;8258;51.020;4.248;2023-05-07T05:28:10;15.70;99.90
16301;DHT22;8258;51.020;4.248;2023-05-07T05:30:39;15.80;99.90
16301;DHT22;8258;51.020;4.248;2023-05-07T05:33:06;15.90;99.90
16301;DHT22;8258;51.020;4.248;2023-05-07T05:35:33;15.80;99.90
16301;DHT22;8258;51.020;4.248;2023-05-07T05:38:01;15.80;99.90
16301;DHT22;8258;51.020;4.248;2023-05-07T05:40:29;15.70;99.90
16301;DHT22;8258;51.020;4.248;2023-05-07T05:42:56;15.70;99.90
16301;DHT22;8258;51.020;4.248;2023-05-07T05:45:23;15.70;99.90
16301;DHT22;8258;51.020;4.248;2023-05-07T05:47:50;15.70;99.90
16301;DHT22;8258;51.020;4.248;2023-05-07T05:50:17;15.80;99.90
16301;DHT22;8258;51.020;4.248;2023-05-07T05:52:44;15.90;99.90
16301;DHT22;8258;51.020;4.248;2023-05-07T05:55:11;15.90;99.90
16301;DHT22;8258;51.020;4.248;2023-05-07T05:57:39;15.90;99.90
16301;DHT22;8258;51.020;4.248;2023-05-07T06:00:07;16.00;99.90
16301;DHT22;8258;51.020;4.248;2023-05-07T06:02:34;16.00;99.90
16301;DHT22;8258;51.020;4.248;2023-05-07T06:05:02;16.10;99.90
16301;DHT22;8258;51.020;4.248;2023-05-07T06:07:28;16.10;99.90
16301;DHT22;8258;51.020;4.248;2023-05-07T06:09:55;15.90;99.90
16301;DHT22;8258;51.020;4.248;2023-05-07T06:12:22;15.70;99.90
16301;DHT22;8258;51.020;4.248;2023-05-07T06:14:51;15.70;99.90
16301;DHT22;8258;51.020;4.248;2023-05-07T06:17:18;15.60;99.90
16301;DHT22;8258;51.020;4.248;2023-05-07T06:19:45;15.70;99.90
16301;DHT22;8258;51.020;4.248;2023-05-07T06:22:12;15.70;99.90
16301;DHT22;8258;51.020;4.248;2023-05-07T06:24:39;15.70;99.90
16301;DHT22;8258;51.020;4.248;2023-05-07T06:27:06;15.90;99.90
16301;DHT22;8258;51.020;4.248;2023-05-07T06:29:33;16.00;99.90
16301;DHT22;8258;51.020;4.248;2023-05-07T06:32:08;15.90;99.90
16301;DHT22;8258;51.020;4.248;2023-05-07T06:34:35;16.10;99.90
16301;DHT22;8258;51.020;4.248;2023-05-07T06:37:02;16.20;99.90
16301;DHT22;8258;51.020;4.248;2023-05-07T06:39:29;16.20;99.90
16301;DHT22;8258;51.020;4.248;2023-05-07T06:41:56;16.40;99.90
16301;DHT22;8258;51.020;4.248;2023-05-07T06:44:23;16.40;99.90
16301;DHT22;8258;51.020;4.248;2023-05-07T06:46:50;16.30;99.90
16301;DHT22;8258;51.020;4.248;2023-05-07T06:49:18;16.20;99.90
16301;DHT22;8258;51.020;4.248;2023-05-07T06:51:45;16.20;99.90
16301;DHT22;8258;51.020;4.248;2023-05-07T06:54:12;16.20;99.90
16301;DHT22;8258;51.020;4.248;2023-05-07T06:56:39;16.20;99.90
16301;DHT22;8258;51.020;4.248;2023-05-07T06:59:06;16.10;99.90
16301;DHT22;8258;51.020;4.248;2023-05-07T07:01:33;16.10;99.90
16301;DHT22;8258;51.020;4.248;2023-05-07T07:04:00;16.20;99.90
16301;DHT22;8258;51.020;4.248;2023-05-07T07:06:28;16.20;99.90
16301;DHT22;8258;51.020;4.248;2023-05-07T07:08:57;16.30;99.90
16301;DHT22;8258;51.020;4.248;2023-05-07T07:11:24;16.20;99.90
16301;DHT22;8258;51.020;4.248;2023-05-07T07:24:12;16.10;99.90
16301;DHT22;8258;51.020;4.248;2023-05-07T07:26:44;16.00;99.90
16301;DHT22;8258;51.020;4.248;2023-05-07T07:29:11;16.10;99.90
16301;DHT22;8258;51.020;4.248;2023-05-07T08:05:19;16.80;99.90
16301;DHT22;8258;51.020;4.248;2023-05-07T08:07:47;16.90;99.90
16301;DHT22;8258;51.020;4.248;2023-05-07T08:10:17;16.90;99.90
16301;DHT22;8258;51.020;4.248;2023-05-07T08:12:46;16.90;99.90
16301;DHT22;8258;51.020;4.248;2023-05-07T08:15:14;17.00;99.90
16301;DHT22;8258;51.020;4.248;2023-05-07T08:17:41;16.80;99.90
16301;DHT22;8258;51.020;4.248;2023-05-07T08:20:09;16.90;99.90
16301;DHT22;8258;51.020;4.248;2023-05-07T08:22:37;17.00;99.90
16301;DHT22;8258;51.020;4.248;2023-05-07T08:25:05;17.00;99.90
16301;DHT22;8258;51.020;4.248;2023-05-07T08:27:32;17.20;99.90
16301;DHT22;8258;51.020;4.248;2023-05-07T08:29:59;17.30;99.90
16301;DHT22;8258;51.020;4.248;2023-05-07T08:32:26;17.30;99.90
16301;DHT22;8258;51.020;4.248;2023-05-07T08:34:53;17.50;99.90
16301;DHT22;8258;51.020;4.248;2023-05-07T08:37:20;17.50;99.90
16301;DHT22;8258;51.020;4.248;2023-05-07T08:39:48;17.70;99.90
16301;DHT22;8258;51.020;4.248;2023-05-07T08:42:16;17.70;99.90
16301;DHT22;8258;51.020;4.248;2023-05-07T08:44:45;17.80;99.90
16301;DHT22;8258;51.020;4.248;2023-05-07T08:47:13;17.90;99.90
16301;DHT22;8258;51.020;4.248;2023-05-07T08:49:40;17.90;99.90
16301;DHT22;8258;51.020;4.248;2023-05-07T08:52:07;17.90;99.90
16301;DHT22;8258;51.020;4.248;2023-05-07T10:01:49;17.70;99.90
16301;DHT22;8258;51.020;4.248;2023-05-07T10:04:20;17.80;99.90
16301;DHT22;8258;51.020;4.248;2023-05-07T10:35:19;17.80;99.90
16301;DHT22;8258;51.020;4.248;2023-05-07T10:37:48;18.00;99.90
16301;DHT22;8258;51.020;4.248;2023-05-07T10:40:15;18.20;99.90
16301;DHT22;8258;51.020;4.248;2023-05-07T10:42:58;18.30;99.90
16301;DHT22;8258;51.020;4.248;2023-05-07T10:45:26;18.50;99.90
16301;DHT22;8258;51.020;4.248;2023-05-07T10:48:06;18.60;99.90
16301;DHT22;8258;51.020;4.248;2023-05-07T10:50:35;18.60;99.90
16301;DHT22;8258;51.020;4.248;2023-05-07T10:53:23;18.70;99.90
16301;DHT22;8258;51.020;4.248;2023-05-07T10:58:54;19.00;99.90
16301;DHT22;8258;51.020;4.248;2023-05-07T11:01:49;18.90;99.90
16301;DHT22;8258;51.020;4.248;2023-05-07T11:04:17;18.60;99.90
16301;DHT22;8258;51.020;4.248;2023-05-07T11:10:04;18.30;99.90
16301;DHT22;8258;51.020;4.248;2023-05-07T11:12:51;18.30;99.90
16301;DHT22;8258;51.020;4.248;2023-05-07T11:15:36;18.50;99.90
16301;DHT22;8258;51.020;4.248;2023-05-07T11:18:03;18.70;99.90
16301;DHT22;8258;51.020;4.248;2023-05-07T11:20:51;18.60;99.90
16301;DHT22;8258;51.020;4.248;2023-05-07T11:23:55;18.60;99.90
16301;DHT22;8258;51.020;4.248;2023-05-07T11:26:25;18.70;99.90
16301;DHT22;8258;51.020;4.248;2023-05-07T11:28:52;18.60;99.90
16301;DHT22;8258;51.020;4.248;2023-05-07T11:31:27;18.60;99.90
16301;DHT22;8258;51.020;4.248;2023-05-07T11:33:55;18.60;99.90
16301;DHT22;8258;51.020;4.248;2023-05-07T11:36:23;18.90;99.90
16301;DHT22;8258;51.020;4.248;2023-05-07T11:38:51;19.00;99.90
16301;DHT22;8258;51.020;4.248;2023-05-07T11:41:18;19.20;99.90
16301;DHT22;8258;51.020;4.248;2023-05-07T11:43:58;19.20;99.90
16301;DHT22;8258;51.020;4.248;2023-05-07T11:46:27;19.50;99.90
16301;DHT22;8258;51.020;4.248;2023-05-07T11:48:54;19.50;99.90
16301;DHT22;8258;51.020;4.248;2023-05-07T11:51:22;19.50;99.90
16301;DHT22;8258;51.020;4.248;2023-05-07T11:53:50;19.50;99.90
16301;DHT22;8258;51.020;4.248;2023-05-07T11:56:18;19.60;99.90
16301;DHT22;8258;51.020;4.248;2023-05-07T11:58:46;19.60;99.90
16301;DHT22;8258;51.020;4.248;2023-05-07T12:01:15;19.60;99.90
16301;DHT22;8258;51.020;4.248;2023-05-07T12:03:44;19.60;99.90
16301;DHT22;8258;51.020;4.248;2023-05-07T12:06:14;19.60;99.90
16301;DHT22;8258;51.020;4.248;2023-05-07T12:08:42;19.60;99.90
16301;DHT22;8258;51.020;4.248;2023-05-07T12:11:13;19.50;99.90
16301;DHT22;8258;51.020;4.248;2023-05-07T12:13:41;19.50;99.90
16301;DHT22;8258;51.020;4.248;2023-05-07T12:16:09;19.40;99.90
16301;DHT22;8258;51.020;4.248;2023-05-07T12:18:37;19.40;99.90
16301;DHT22;8258;51.020;4.248;2023-05-07T12:21:06;19.60;99.90
16301;DHT22;8258;51.020;4.248;2023-05-07T12:23:34;19.60;99.90
16301;DHT22;8258;51.020;4.248;2023-05-07T12:26:02;19.60;99.90
16301;DHT22;8258;51.020;4.248;2023-05-07T12:28:30;19.80;99.90
16301;DHT22;8258;51.020;4.248;2023-05-07T12:30:58;19.80;99.90
16301;DHT22;8258;51.020;4.248;2023-05-07T12:33:26;20.00;99.90
16301;DHT22;8258;51.020;4.248;2023-05-07T12:35:55;20.00;99.90
16301;DHT22;8258;51.020;4.248;2023-05-07T12:38:22;20.30;99.90
16301;DHT22;8258;51.020;4.248;2023-05-07T12:40:54;20.40;99.90
16301;DHT22;8258;51.020;4.248;2023-05-07T12:43:24;20.30;99.90
16301;DHT22;8258;51.020;4.248;2023-05-07T12:45:54;20.10;99.90
16301;DHT22;8258;51.020;4.248;2023-05-07T12:48:22;20.30;99.90
16301;DHT22;8258;51.020;4.248;2023-05-07T12:50:50;20.50;99.90
16301;DHT22;8258;51.020;4.248;2023-05-07T12:53:20;20.20;99.90
16301;DHT22;8258;51.020;4.248;2023-05-07T12:55:49;20.10;99.90
16301;DHT22;8258;51.020;4.248;2023-05-07T12:58:18;20.30;99.90
16301;DHT22;8258;51.020;4.248;2023-05-07T13:00:47;20.20;99.90
16301;DHT22;8258;51.020;4.248;2023-05-07T13:03:22;20.40;99.90
16301;DHT22;8258;51.020;4.248;2023-05-07T13:05:50;21.00;99.90
16301;DHT22;8258;51.020;4.248;2023-05-07T13:08:30;21.00;99.90
16301;DHT22;8258;51.020;4.248;2023-05-07T13:10:58;21.10;99.90
16301;DHT22;8258;51.020;4.248;2023-05-07T13:13:28;21.00;99.90
16301;DHT22;8258;51.020;4.248;2023-05-07T13:15:55;20.80;99.90
16301;DHT22;8258;51.020;4.248;2023-05-07T13:18:24;20.90;99.90
16301;DHT22;8258;51.020;4.248;2023-05-07T13:20:51;20.90;99.90
16301;DHT22;8258;51.020;4.248;2023-05-07T13:23:18;21.00;99.90
16301;DHT22;8258;51.020;4.248;2023-05-07T13:25:46;21.20;99.90
16301;DHT22;8258;51.020;4.248;2023-05-07T13:28:13;21.50;99.90
16301;DHT22;8258;51.020;4.248;2023-05-07T13:30:40;21.70;99.90
16301;DHT22;8258;51.020;4.248;2023-05-07T13:33:08;21.70;99.90
16301;DHT22;8258;51.020;4.248;2023-05-07T13:35:35;21.40;99.90
16301;DHT22;8258;51.020;4.248;2023-05-07T13:38:03;21.00;99.90
16301;DHT22;8258;51.020;4.248;2023-05-07T13:40:30;20.60;99.90
16301;DHT22;8258;51.020;4.248;2023-05-07T13:42:59;20.50;99.90
16301;DHT22;8258;51.020;4.248;2023-05-07T13:45:27;20.60;99.90
16301;DHT22;8258;51.020;4.248;2023-05-07T13:47:55;20.70;99.90
16301;DHT22;8258;51.020;4.248;2023-05-07T13:50:22;20.90;99.90
16301;DHT22;8258;51.020;4.248;2023-05-07T13:52:50;20.90;99.90
16301;DHT22;8258;51.020;4.248;2023-05-07T13:55:17;20.90;99.90
16301;DHT22;8258;51.020;4.248;2023-05-07T13:57:44;21.20;99.90
16301;DHT22;8258;51.020;4.248;2023-05-07T14:00:13;21.20;99.90
16301;DHT22;8258;51.020;4.248;2023-05-07T14:02:41;21.00;99.90
16301;DHT22;8258;51.020;4.248;2023-05-07T14:05:09;20.40;99.90
16301;DHT22;8258;51.020;4.248;2023-05-07T14:07:36;20.20;99.90
16301;DHT22;8258;51.020;4.248;2023-05-07T14:10:04;20.10;99.90
16301;DHT22;8258;51.020;4.248;2023-05-07T14:12:31;20.00;99.90
16301;DHT22;8258;51.020;4.248;2023-05-07T14:14:58;20.10;99.90
16301;DHT22;8258;51.020;4.248;2023-05-07T14:17:28;20.30;99.90
16301;DHT22;8258;51.020;4.248;2023-05-07T14:19:55;20.30;99.90
16301;DHT22;8258;51.020;4.248;2023-05-07T14:22:22;20.50;99.90
16301;DHT22;8258;51.020;4.248;2023-05-07T14:24:50;20.60;99.90
16301;DHT22;8258;51.020;4.248;2023-05-07T14:27:17;20.80;99.90
16301;DHT22;8258;51.020;4.248;2023-05-07T14:29:44;21.00;99.90
16301;DHT22;8258;51.020;4.248;2023-05-07T14:32:11;21.40;99.90
16301;DHT22;8258;51.020;4.248;2023-05-07T14:34:39;21.30;99.90
16301;DHT22;8258;51.020;4.248;2023-05-07T14:37:06;21.40;99.90
16301;DHT22;8258;51.020;4.248;2023-05-07T14:39:33;21.30;99.90
16301;DHT22;8258;51.020;4.248;2023-05-07T14:42:01;21.30;99.90
16301;DHT22;8258;51.020;4.248;2023-05-07T14:44:28;21.40;99.90
16301;DHT22;8258;51.020;4.248;2023-05-07T14:46:57;21.20;99.90
16301;DHT22;8258;51.020;4.248;2023-05-07T14:49:23;21.40;99.90
16301;DHT22;8258;51.020;4.248;2023-05-07T14:51:52;21.30;99.90
16301;DHT22;8258;51.020;4.248;2023-05-07T14:54:19;20.80;99.90
16301;DHT22;8258;51.020;4.248;2023-05-07T14:56:46;20.90;99.90
16301;DHT22;8258;51.020;4.248;2023-05-07T14:59:13;21.00;99.90
16301;DHT22;8258;51.020;4.248;2023-05-07T15:01:41;20.90;99.90
16301;DHT22;8258;51.020;4.248;2023-05-07T15:04:10;20.90;99.90
16301;DHT22;8258;51.020;4.248;2023-05-07T15:06:37;21.00;99.90
16301;DHT22;8258;51.020;4.248;2023-05-07T15:09:06;20.90;99.90
16301;DHT22;8258;51.020;4.248;2023-05-07T15:11:34;21.00;99.90
16301;DHT22;8258;51.020;4.248;2023-05-07T15:14:01;20.80;99.90
16301;DHT22;8258;51.020;4.248;2023-05-07T15:16:28;20.60;99.90
16301;DHT22;8258;51.020;4.248;2023-05-07T15:18:55;20.50;99.90
16301;DHT22;8258;51.020;4.248;2023-05-07T15:21:22;20.30;99.90
16301;DHT22;8258;51.020;4.248;2023-05-07T15:23:49;20.30;99.90
16301;DHT22;8258;51.020;4.248;2023-05-07T15:26:17;20.30;99.90
16301;DHT22;8258;51.020;4.248;2023-05-07T15:28:44;20.40;99.90
16301;DHT22;8258;51.020;4.248;2023-05-07T15:31:11;20.50;99.90
16301;DHT22;8258;51.020;4.248;2023-05-07T15:33:38;20.60;99.90
16301;DHT22;8258;51.020;4.248;2023-05-07T15:36:06;20.80;99.90
16301;DHT22;8258;51.020;4.248;2023-05-07T15:38:33;20.80;99.90
16301;DHT22;8258;51.020;4.248;2023-05-07T15:41:01;20.70;99.90
16301;DHT22;8258;51.020;4.248;2023-05-07T15:43:29;20.70;99.90
16301;DHT22;8258;51.020;4.248;2023-05-07T15:45:56;20.70;99.90
16301;DHT22;8258;51.020;4.248;2023-05-07T15:48:23;20.80;99.90
16301;DHT22;8258;51.020;4.248;2023-05-07T15:50:50;20.80;99.90
16301;DHT22;8258;51.020;4.248;2023-05-07T15:53:17;20.70;99.90
16301;DHT22;8258;51.020;4.248;2023-05-07T15:55:44;20.60;99.90
16301;DHT22;8258;51.020;4.248;2023-05-07T15:58:12;20.60;99.90
16301;DHT22;8258;51.020;4.248;2023-05-07T16:00:41;20.70;99.90
16301;DHT22;8258;51.020;4.248;2023-05-07T16:03:08;20.70;99.90
16301;DHT22;8258;51.020;4.248;2023-05-07T16:05:35;20.70;99.90
16301;DHT22;8258;51.020;4.248;2023-05-07T16:08:03;20.80;99.90
16301;DHT22;8258;51.020;4.248;2023-05-07T16:10:30;20.60;99.90
16301;DHT22;8258;51.020;4.248;2023-05-07T16:12:57;20.50;99.90
16301;DHT22;8258;51.020;4.248;2023-05-07T16:15:24;20.80;99.90
16301;DHT22;8258;51.020;4.248;2023-05-07T16:17:52;20.70;99.90
16301;DHT22;8258;51.020;4.248;2023-05-07T16:20:23;20.90;99.90
16301;DHT22;8258;51.020;4.248;2023-05-07T16:22:51;20.90;99.90
16301;DHT22;8258;51.020;4.248;2023-05-07T16:25:18;20.70;99.90
16301;DHT22;8258;51.020;4.248;2023-05-07T16:27:45;20.50;99.90
16301;DHT22;8258;51.020;4.248;2023-05-07T16:30:12;20.40;99.90
16301;DHT22;8258;51.020;4.248;2023-05-07T16:32:39;20.60;99.90
16301;DHT22;8258;51.020;4.248;2023-05-07T16:35:09;20.60;99.90
16301;DHT22;8258;51.020;4.248;2023-05-07T16:37:39;20.40;99.90
16301;DHT22;8258;51.020;4.248;2023-05-07T16:40:07;20.40;99.90
16301;DHT22;8258;51.020;4.248;2023-05-07T16:42:35;20.40;99.90
16301;DHT22;8258;51.020;4.248;2023-05-07T16:45:03;20.40;99.90
16301;DHT22;8258;51.020;4.248;2023-05-07T16:47:30;20.50;99.90
16301;DHT22;8258;51.020;4.248;2023-05-07T16:49:57;20.50;99.90
16301;DHT22;8258;51.020;4.248;2023-05-07T16:52:26;20.60;99.90
16301;DHT22;8258;51.020;4.248;2023-05-07T16:54:54;20.50;99.90
16301;DHT22;8258;51.020;4.248;2023-05-07T16:57:25;20.40;99.90
16301;DHT22;8258;51.020;4.248;2023-05-07T16:59:52;20.30;99.90
16301;DHT22;8258;51.020;4.248;2023-05-07T17:02:21;20.30;99.90
16301;DHT22;8258;51.020;4.248;2023-05-07T17:04:48;20.20;99.90
16301;DHT22;8258;51.020;4.248;2023-05-07T17:07:15;20.10;99.90
16301;DHT22;8258;51.020;4.248;2023-05-07T17:09:44;20.00;99.90
16301;DHT22;8258;51.020;4.248;2023-05-07T17:12:10;20.00;99.90
16301;DHT22;8258;51.020;4.248;2023-05-07T17:14:37;19.90;99.90
16301;DHT22;8258;51.020;4.248;2023-05-07T17:17:04;19.90;99.90
16301;DHT22;8258;51.020;4.248;2023-05-07T17:19:31;19.80;99.90
16301;DHT22;8258;51.020;4.248;2023-05-07T17:21:59;19.70;99.90
16301;DHT22;8258;51.020;4.248;2023-05-07T17:24:25;19.60;99.90
16301;DHT22;8258;51.020;4.248;2023-05-07T17:26:54;19.60;99.90
16301;DHT22;8258;51.020;4.248;2023-05-07T17:29:21;19.60;99.90
16301;DHT22;8258;51.020;4.248;2023-05-07T17:31:48;19.60;99.90
16301;DHT22;8258;51.020;4.248;2023-05-07T17:34:15;19.60;99.90
16301;DHT22;8258;51.020;4.248;2023-05-07T17:36:42;19.60;99.90
16301;DHT22;8258;51.020;4.248;2023-05-07T17:39:09;19.50;99.90
16301;DHT22;8258;51.020;4.248;2023-05-07T17:41:36;19.40;99.90
16301;DHT22;8258;51.020;4.248;2023-05-07T17:44:04;19.20;99.90
16301;DHT22;8258;51.020;4.248;2023-05-07T17:46:32;19.10;99.90
16301;DHT22;8258;51.020;4.248;2023-05-07T17:48:59;18.90;99.90
16301;DHT22;8258;51.020;4.248;2023-05-07T17:51:26;18.90;99.90
16301;DHT22;8258;51.020;4.248;2023-05-07T17:53:53;18.80;99.90
16301;DHT22;8258;51.020;4.248;2023-05-07T17:56:21;18.40;99.90
16301;DHT22;8258;51.020;4.248;2023-05-07T17:58:48;18.40;99.90
16301;DHT22;8258;51.020;4.248;2023-05-07T18:01:16;18.30;99.90
16301;DHT22;8258;51.020;4.248;2023-05-07T18:03:43;18.40;99.90
16301;DHT22;8258;51.020;4.248;2023-05-07T18:06:11;18.20;99.90
16301;DHT22;8258;51.020;4.248;2023-05-07T18:08:42;17.90;99.90
16301;DHT22;8258;51.020;4.248;2023-05-07T18:11:09;17.70;99.90
16301;DHT22;8258;51.020;4.248;2023-05-07T18:13:36;17.40;99.90
16301;DHT22;8258;51.020;4.248;2023-05-07T18:16:04;17.10;99.90